Time;durP1;ratioP1;P1;durP2;ratioP2;P2;SDS_P1;SDS_P2;PMS_P1;PMS_P2;Temp;Humidity;BMP_temperature;BMP_pressure;BME280_temperature;BME280_humidity;BME280_pressure;Samples;Min_cycle;Max_cycle;Signal;HPM_P1;HPM_P2
2024/03/11 00:00:17;;;;;;;17.10;10.90;;;;;;;4.19;67.84;101067.69;108954;1256;59366;-63
2024/03/11 00:03:05;;;;;;;17.90;10.70;;;;;;;4.19;67.71;101066.70;108789;1254;137776;-63
2024/03/11 00:05:32;;;;;;;17.70;10.80;;;;;;;4.20;67.67;101071.26;108383;1260;65491;-63
2024/03/11 00:07:59;;;;;;;17.60;11.60;;;;;;;4.22;67.64;101072.42;104831;1258;138145;-63
2024/03/11 00:10:27;;;;;;;21.40;12.80;;;;;;;4.24;67.56;101071.85;104981;1254;61323;-63
2024/03/11 00:12:55;;;;;;;21.50;12.10;;;;;;;4.25;67.54;101069.24;109192;1255;59222;-63
2024/03/11 00:15:23;;;;;;;20.80;12.40;;;;;;;4.24;67.55;101071.64;109026;1255;137757;-63
2024/03/11 00:17:50;;;;;;;16.80;11.40;;;;;;;4.24;67.45;101064.14;107545;1259;65307;-63
2024/03/11 00:20:20;;;;;;;15.80;10.40;;;;;;;4.23;67.44;101059.61;104782;1255;137978;-62
2024/03/11 00:22:48;;;;;;;16.20;10.50;;;;;;;4.22;67.39;101062.19;105011;1254;61223;-61
2024/03/11 00:25:15;;;;;;;16.50;10.40;;;;;;;4.22;67.43;101054.52;109003;1255;59359;-62
2024/03/11 00:27:41;;;;;;;17.70;11.40;;;;;;;4.22;67.49;101054.64;105779;1256;137561;-62
2024/03/11 00:30:10;;;;;;;17.00;10.80;;;;;;;4.20;67.47;101055.25;105055;1258;67305;-62
2024/03/11 00:32:45;;;;;;;20.70;10.80;;;;;;;4.18;67.45;101051.88;109005;1254;138162;-62
2024/03/11 00:35:11;;;;;;;19.60;11.80;;;;;;;4.17;67.45;101050.59;109127;1254;59133;-62
2024/03/11 00:37:38;;;;;;;18.10;11.30;;;;;;;4.16;67.50;101043.04;108206;1257;138473;-64
2024/03/11 00:40:06;;;;;;;24.20;11.70;;;;;;;4.16;67.38;101038.35;104986;1255;73835;-62
2024/03/11 00:42:38;;;;;;;20.40;11.40;;;;;;;4.15;67.48;101034.52;109215;1253;63777;-63
2024/03/11 00:45:11;;;;;;;15.60;10.50;;;;;;;4.15;67.40;101031.50;106165;1257;139161;-63
2024/03/11 00:47:41;;;;;;;17.70;10.00;;;;;;;4.13;67.42;101032.15;109116;1254;59320;-63
2024/03/11 00:50:09;;;;;;;14.10;9.60;;;;;;;4.13;67.44;101030.37;108982;1255;138326;-63
2024/03/11 00:52:36;;;;;;;18.50;9.70;;;;;;;4.11;67.35;101028.03;109039;1255;75516;-63
2024/03/11 00:55:06;;;;;;;18.80;10.60;;;;;;;4.08;67.32;101030.15;109066;1256;67212;-63
2024/03/11 00:57:35;;;;;;;16.20;9.70;;;;;;;4.04;67.35;101029.05;109030;1256;137646;-62
2024/03/11 01:00:05;;;;;;;16.30;10.40;;;;;;;4.00;67.28;101030.55;109006;1256;63658;-62
2024/03/11 01:02:35;;;;;;;16.70;10.10;;;;;;;3.96;67.30;101034.14;109195;1253;138295;-62
2024/03/11 01:05:02;;;;;;;16.50;9.90;;;;;;;3.93;67.30;101030.63;109078;1254;75092;-61
2024/03/11 01:07:29;;;;;;;18.60;10.30;;;;;;;3.90;67.33;101025.98;108918;1254;137752;-62
2024/03/11 01:09:56;;;;;;;18.00;10.20;;;;;;;3.87;67.26;101025.28;107460;1253;71401;-61
2024/03/11 01:12:22;;;;;;;16.20;9.70;;;;;;;3.83;67.35;101030.66;104843;1256;61231;-62
2024/03/11 01:14:51;;;;;;;17.20;10.40;;;;;;;3.79;67.26;101028.14;104862;1254;137687;-62
2024/03/11 01:17:18;;;;;;;17.20;9.50;;;;;;;3.73;67.24;101027.80;104873;1259;73969;-62
2024/03/11 01:19:45;;;;;;;15.20;9.80;;;;;;;3.66;67.24;101023.80;104900;1258;138417;-62
2024/03/11 01:22:16;;;;;;;20.40;10.50;;;;;;;3.62;67.22;101030.30;104896;1255;73286;-61
2024/03/11 01:24:43;;;;;;;18.70;11.70;;;;;;;3.59;67.45;101030.47;108988;1255;58986;-62
2024/03/11 01:27:10;;;;;;;17.40;10.40;;;;;;;3.57;67.32;101030.21;108934;1256;137976;-62
2024/03/11 01:29:41;;;;;;;16.60;9.60;;;;;;;3.56;67.43;101028.23;108364;1257;75624;-62
2024/03/11 01:32:09;;;;;;;14.80;9.70;;;;;;;3.55;67.37;101029.38;104829;1260;138150;-61
2024/03/11 01:34:35;;;;;;;13.70;8.80;;;;;;;3.53;67.36;101031.19;104866;1260;71541;-61
2024/03/11 01:37:02;;;;;;;13.70;8.40;;;;;;;3.50;67.32;101027.05;104901;1258;60279;-61
2024/03/11 01:39:42;;;;;;;13.80;9.20;;;;;;;3.47;67.25;101027.73;104903;1256;138234;-62
2024/03/11 01:42:15;;;;;;;15.20;9.70;;;;;;;3.42;67.30;101022.05;109172;1256;75477;-62
2024/03/11 01:44:47;;;;;;;13.90;9.30;;;;;;;3.36;67.11;101021.36;108935;1257;137658;-62
2024/03/11 01:47:15;;;;;;;16.20;9.10;;;;;;;3.31;67.07;101016.91;109000;1255;73853;-62
2024/03/11 01:49:45;;;;;;;14.40;8.70;;;;;;;3.29;67.13;101017.50;108928;1254;138939;-61
2024/03/11 01:52:16;;;;;;;17.70;9.50;;;;;;;3.28;67.07;101014.69;109035;1255;59217;-62
2024/03/11 01:54:43;;;;;;;17.00;8.70;;;;;;;3.29;67.25;101013.66;108937;1255;74561;-62
2024/03/11 01:57:13;;;;;;;13.00;8.80;;;;;;;3.31;67.17;101012.89;109073;1254;138358;-63
2024/03/11 01:59:39;;;;;;;13.20;8.70;;;;;;;3.34;67.18;101010.83;108903;1256;72214;-63
2024/03/11 02:02:07;;;;;;;12.40;8.40;;;;;;;3.36;67.14;101006.27;108950;1254;138308;-63
2024/03/11 02:04:35;;;;;;;18.90;9.20;;;;;;;3.40;66.98;101007.55;109217;1255;59027;-63
2024/03/11 02:07:03;;;;;;;12.80;8.60;;;;;;;3.40;66.93;101007.69;109032;1255;73686;-63
2024/03/11 02:09:30;;;;;;;13.90;8.80;;;;;;;3.38;66.81;101008.60;108952;1260;137639;-63
2024/03/11 02:11:58;;;;;;;14.80;9.20;;;;;;;3.35;66.80;101004.79;109062;1255;72959;-63
2024/03/11 02:14:26;;;;;;;12.30;8.40;;;;;;;3.30;66.72;101006.27;108928;1258;137840;-63
2024/03/11 02:16:52;;;;;;;14.40;9.00;;;;;;;3.28;66.74;101008.08;109080;1254;61544;-63
2024/03/11 02:19:19;;;;;;;12.10;8.40;;;;;;;3.25;66.64;101007.37;109074;1256;74963;-64
2024/03/11 02:21:46;;;;;;;13.20;8.30;;;;;;;3.20;66.74;101002.05;105222;1260;137409;-63
2024/03/11 02:24:16;;;;;;;17.20;9.50;;;;;;;3.13;66.59;101002.52;104946;1258;73665;-63
2024/03/11 02:26:45;;;;;;;15.40;9.60;;;;;;;3.06;66.67;101000.31;104864;1260;137740;-64
2024/03/11 02:29:16;;;;;;;16.00;9.30;;;;;;;2.98;66.65;100997.79;109018;1258;60456;-64
2024/03/11 02:31:44;;;;;;;13.30;8.20;;;;;;;2.92;66.68;100992.41;108939;1255;138681;-64
2024/03/11 02:34:11;;;;;;;15.10;8.50;;;;;;;2.86;66.60;100991.35;109191;1254;63979;-64
2024/03/11 02:36:44;;;;;;;15.30;8.80;;;;;;;2.81;66.66;100995.38;109020;1256;73881;-64
2024/03/11 02:39:10;;;;;;;12.80;8.90;;;;;;;2.77;66.69;100993.58;108998;1254;138027;-64
2024/03/11 02:41:37;;;;;;;14.80;9.00;;;;;;;2.71;66.76;101001.95;109110;1254;59196;-65
2024/03/11 02:44:04;;;;;;;15.60;8.60;;;;;;;2.66;66.76;100997.61;108938;1254;137742;-64
2024/03/11 02:46:31;;;;;;;13.60;8.30;;;;;;;2.61;66.73;100996.95;109069;1258;66577;-64
2024/03/11 02:48:58;;;;;;;14.80;8.70;;;;;;;2.55;66.79;101005.44;108964;1258;71029;-63
2024/03/11 02:51:25;;;;;;;15.80;8.70;;;;;;;2.48;66.68;101000.50;104808;1255;137614;-63
2024/03/11 02:53:52;;;;;;;17.30;9.60;;;;;;;2.39;66.80;100997.55;104951;1258;61263;-63
2024/03/11 02:56:18;;;;;;;16.90;9.00;;;;;;;2.32;66.81;100992.24;104892;1261;138235;-63
2024/03/11 02:58:45;;;;;;;14.50;8.80;;;;;;;2.24;66.85;100993.29;105050;1260;66626;-63
2024/03/11 03:01:16;;;;;;;13.40;9.00;;;;;;;2.16;66.92;100990.41;104933;1261;73267;-63
2024/03/11 03:03:43;;;;;;;16.80;8.70;;;;;;;2.11;67.00;100994.23;104739;1253;138159;-63
2024/03/11 03:06:10;;;;;;;15.30;8.40;;;;;;;2.06;67.23;100995.66;105037;1256;61244;-63
2024/03/11 03:08:37;;;;;;;16.10;9.40;;;;;;;2.01;67.28;100992.91;104832;1259;138008;-63
2024/03/11 03:11:04;;;;;;;18.10;9.70;;;;;;;1.98;67.23;100989.25;105042;1258;65997;-63
2024/03/11 03:13:30;;;;;;;17.10;9.50;;;;;;;1.93;67.51;100988.61;104954;1259;138299;-64
2024/03/11 03:15:57;;;;;;;13.90;9.40;;;;;;;1.89;67.48;100990.42;104951;1258;61367;-63
2024/03/11 03:18:24;;;;;;;16.90;8.80;;;;;;;1.85;67.61;100991.92;104754;1268;61316;-63
2024/03/11 03:20:50;;;;;;;17.00;9.20;;;;;;;1.81;67.66;100988.52;104825;1259;138153;-62
2024/03/11 03:23:17;;;;;;;12.30;8.60;;;;;;;1.79;67.55;100988.06;104922;1256;65581;-62
2024/03/11 03:25:44;;;;;;;14.70;8.70;;;;;;;1.76;67.68;100990.81;104792;1258;138315;-62
2024/03/11 03:28:11;;;;;;;20.10;9.10;;;;;;;1.72;67.62;100986.78;104823;1260;61287;-62
2024/03/11 03:30:38;;;;;;;16.10;9.80;;;;;;;1.69;67.55;100990.73;104894;1260;61198;-62
2024/03/11 03:33:05;;;;;;;15.10;9.20;;;;;;;1.66;67.72;100989.34;104784;1254;137598;-62
2024/03/11 03:35:32;;;;;;;16.10;9.30;;;;;;;1.62;67.75;100988.69;104910;1258;67229;-62
2024/03/11 03:38:01;;;;;;;13.70;8.90;;;;;;;1.58;67.88;100990.17;104877;1261;138460;-62
2024/03/11 03:40:28;;;;;;;16.40;9.00;;;;;;;1.53;67.89;100987.98;108917;1258;59366;-62
2024/03/11 03:42:55;;;;;;;15.10;8.50;;;;;;;1.51;67.93;100991.14;108297;1258;61237;-61
2024/03/11 03:45:22;;;;;;;16.20;8.40;;;;;;;1.48;68.04;100990.94;104980;1259;138721;-62
2024/03/11 03:47:49;;;;;;;16.50;9.10;;;;;;;1.45;67.89;100989.52;105020;1260;65420;-63
2024/03/11 03:50:17;;;;;;;18.40;8.20;;;;;;;1.44;67.96;100989.46;108989;1254;137765;-64
2024/03/11 03:52:44;;;;;;;15.90;9.30;;;;;;;1.44;68.13;100992.17;109153;1257;59319;-64
2024/03/11 03:55:11;;;;;;;12.30;8.50;;;;;;;1.43;68.10;100996.48;109104;1254;60871;-64
2024/03/11 03:57:38;;;;;;;14.70;9.10;;;;;;;1.44;68.06;100995.13;109165;1254;137337;-64
2024/03/11 04:00:15;;;;;;;13.60;8.90;;;;;;;1.49;68.28;100997.04;109007;1254;66245;-65
2024/03/11 04:02:45;;;;;;;13.30;8.30;;;;;;;1.61;68.30;100990.71;108809;1257;138378;-63
2024/03/11 04:05:12;;;;;;;12.80;8.80;;;;;;;1.74;68.37;100987.20;109100;1254;59026;-62
2024/03/11 04:07:41;;;;;;;15.80;9.10;;;;;;;1.86;68.32;100985.35;108990;1257;138191;-64
2024/03/11 04:10:12;;;;;;;16.00;8.70;;;;;;;1.97;68.39;100984.03;109162;1255;75748;-64
2024/03/11 04:12:44;;;;;;;13.50;7.40;;;;;;;2.08;68.21;100987.96;109069;1255;64944;-65
2024/03/11 04:15:12;;;;;;;17.20;8.90;;;;;;;2.16;68.13;100986.08;108910;1259;138812;-64
2024/03/11 04:17:40;;;;;;;19.10;8.60;;;;;;;2.26;68.19;100979.56;108522;1254;58935;-63
2024/03/11 04:20:11;;;;;;;12.50;8.30;;;;;;;2.36;68.00;100976.02;104939;1259;139477;-63
2024/03/11 04:22:41;;;;;;;15.20;8.20;;;;;;;2.46;68.09;100975.09;108033;1254;74998;-63
2024/03/11 04:25:19;;;;;;;14.70;8.30;;;;;;;2.53;68.01;100980.57;104820;1260;64431;-62
2024/03/11 04:27:46;;;;;;;14.70;8.20;;;;;;;2.61;67.84;100980.99;105070;1260;137203;-63
2024/03/11 04:30:16;;;;;;;12.50;8.40;;;;;;;2.67;67.80;100977.41;105117;1259;61236;-64
2024/03/11 04:32:43;;;;;;;16.30;9.10;;;;;;;2.73;67.61;100976.40;104870;1257;138195;-65
2024/03/11 04:35:11;;;;;;;18.10;10.00;;;;;;;2.76;67.50;100978.09;104889;1258;75496;-63
2024/03/11 04:37:38;;;;;;;13.60;8.80;;;;;;;2.77;67.55;100976.11;108972;1257;137806;-63
2024/03/11 04:40:07;;;;;;;15.20;9.30;;;;;;;2.80;67.58;100973.13;104970;1258;71380;-63
2024/03/11 04:42:34;;;;;;;16.20;9.30;;;;;;;2.82;67.43;100968.79;109116;1254;59262;-63
2024/03/11 04:45:01;;;;;;;14.20;8.50;;;;;;;2.86;67.53;100971.26;108968;1258;137481;-63
2024/03/11 04:47:27;;;;;;;18.40;8.60;;;;;;;2.88;67.39;100974.31;109057;1254;75295;-63
2024/03/11 04:49:55;;;;;;;17.10;8.70;;;;;;;2.89;67.34;100974.75;109069;1257;137681;-63
2024/03/11 04:52:22;;;;;;;18.00;10.50;;;;;;;2.94;67.32;100977.42;109118;1254;72680;-63
2024/03/11 04:54:48;;;;;;;13.40;8.10;;;;;;;2.95;67.16;100972.81;109128;1257;59258;-61
2024/03/11 04:57:15;;;;;;;16.50;9.20;;;;;;;2.97;67.23;100970.14;109010;1254;138394;-62
2024/03/11 04:59:42;;;;;;;25.20;9.00;;;;;;;2.99;67.20;100976.52;109189;1253;74050;-62
2024/03/11 05:02:09;;;;;;;12.80;8.40;;;;;;;3.01;67.06;100977.98;108960;1257;137542;-62
2024/03/11 05:04:36;;;;;;;11.40;8.40;;;;;;;3.04;67.08;100974.89;108847;1254;73302;-62
2024/03/11 05:07:02;;;;;;;13.00;7.80;;;;;;;3.08;67.04;100974.96;109050;1254;58935;-62
2024/03/11 05:09:29;;;;;;;12.50;8.00;;;;;;;3.07;66.97;100975.65;109010;1254;138114;-64
2024/03/11 05:11:58;;;;;;;11.00;8.00;;;;;;;3.08;66.84;100979.14;109125;1254;73036;-63
2024/03/11 05:14:25;;;;;;;11.20;7.50;;;;;;;3.12;66.97;100979.34;107793;1255;137747;-63
2024/03/11 05:16:55;;;;;;;11.40;7.90;;;;;;;3.14;66.84;100981.91;104905;1254;71693;-63
2024/03/11 05:19:22;;;;;;;15.90;8.20;;;;;;;3.16;66.94;100982.02;104863;1257;138064;-64
2024/03/11 05:21:49;;;;;;;15.20;8.40;;;;;;;3.17;66.99;100984.66;105023;1254;61439;-64
2024/03/11 05:24:16;;;;;;;14.70;8.90;;;;;;;3.19;66.93;100985.51;105053;1260;75546;-65
2024/03/11 05:26:42;;;;;;;15.90;8.70;;;;;;;3.19;66.74;100988.79;104823;1257;137594;-64
2024/03/11 05:29:12;;;;;;;12.40;8.00;;;;;;;3.20;66.83;100993.71;105027;1255;71934;-64
2024/03/11 05:31:39;;;;;;;18.20;7.90;;;;;;;3.20;66.87;100989.75;104810;1259;137676;-63
2024/03/11 05:34:06;;;;;;;16.20;9.10;;;;;;;3.22;66.82;100988.45;104832;1254;61655;-63
2024/03/11 05:36:33;;;;;;;12.80;8.20;;;;;;;3.19;66.87;100984.61;104820;1254;75098;-63
2024/03/11 05:39:00;;;;;;;12.10;7.80;;;;;;;3.23;66.91;100990.05;104789;1259;137470;-63
2024/03/11 05:41:27;;;;;;;11.40;8.20;;;;;;;3.25;66.80;100995.22;104981;1257;72078;-63
2024/03/11 05:43:54;;;;;;;13.30;8.00;;;;;;;3.27;67.05;100992.39;104879;1257;137733;-64
2024/03/11 05:46:20;;;;;;;10.70;7.60;;;;;;;3.29;66.98;100996.84;104856;1255;61342;-63
2024/03/11 05:48:47;;;;;;;14.10;8.80;;;;;;;3.29;67.01;100996.35;104907;1254;75223;-63
2024/03/11 05:51:14;;;;;;;15.20;8.20;;;;;;;3.28;66.88;100992.63;104854;1254;137665;-63
2024/03/11 05:53:41;;;;;;;13.70;8.10;;;;;;;3.27;66.92;100989.61;104940;1254;73316;-63
2024/03/11 05:56:10;;;;;;;14.50;8.10;;;;;;;3.24;66.83;100989.10;104914;1255;138695;-61
2024/03/11 05:58:38;;;;;;;12.50;8.10;;;;;;;3.23;66.97;100990.44;109072;1254;59072;-62
2024/03/11 06:01:05;;;;;;;11.50;8.10;;;;;;;3.23;66.98;100993.52;109066;1254;73472;-64
2024/03/11 06:03:31;;;;;;;14.40;7.60;;;;;;;3.24;66.79;100990.80;108990;1254;137954;-67
2024/03/11 06:05:58;;;;;;;14.90;8.40;;;;;;;3.25;66.86;100992.47;109112;1254;72703;-66
2024/03/11 06:08:27;;;;;;;16.40;8.70;;;;;;;3.26;66.81;100991.45;108941;1254;138248;-66
2024/03/11 06:10:54;;;;;;;12.40;7.80;;;;;;;3.29;66.81;100994.96;109086;1254;59268;-65
2024/03/11 06:13:21;;;;;;;10.00;7.50;;;;;;;3.34;66.80;101000.92;108937;1254;73807;-64
2024/03/11 06:15:48;;;;;;;13.10;8.30;;;;;;;3.39;66.76;101002.95;106967;1254;65401;-63
2024/03/11 06:18:14;;;;;;;14.90;8.90;;;;;;;3.43;66.79;101005.14;104944;1259;71845;-63
2024/03/11 06:20:42;;;;;;;17.00;9.30;;;;;;;3.50;66.92;101004.14;104819;1258;138406;-65
2024/03/11 06:23:08;;;;;;;19.00;9.10;;;;;;;3.57;66.96;101004.15;104513;1254;61909;-66
2024/03/11 06:25:35;;;;;;;15.30;8.80;;;;;;;3.61;66.97;101004.90;104780;1259;138790;-63
2024/03/11 06:28:04;;;;;;;15.20;9.10;;;;;;;3.65;66.95;101004.48;104826;1256;66668;-61
2024/03/11 06:30:31;;;;;;;15.90;8.60;;;;;;;3.71;66.97;101001.67;109144;1254;72253;-61
2024/03/11 06:32:59;;;;;;;14.60;9.30;;;;;;;3.73;66.81;101004.91;109009;1254;137383;-62
2024/03/11 06:35:26;;;;;;;16.10;8.80;;;;;;;3.70;66.89;101006.63;109064;1254;63599;-62
2024/03/11 06:37:53;;;;;;;16.90;9.70;;;;;;;3.70;66.88;101008.39;109007;1256;138281;-62
2024/03/11 06:40:23;;;;;;;19.20;9.70;;;;;;;3.69;66.83;101007.11;109078;1254;66058;-62
2024/03/11 06:42:51;;;;;;;19.30;9.90;;;;;;;3.66;66.75;101010.11;109087;1253;70567;-62
2024/03/11 06:45:18;;;;;;;18.20;10.00;;;;;;;3.67;66.93;101012.72;108971;1257;138046;-62
2024/03/11 06:47:45;;;;;;;15.30;9.30;;;;;;;3.66;66.96;101016.84;109099;1253;59532;-62
2024/03/11 06:50:13;;;;;;;18.50;9.20;;;;;;;3.66;66.98;101018.40;108910;1254;137840;-65
2024/03/11 06:52:39;;;;;;;16.60;9.10;;;;;;;3.67;66.98;101017.97;109109;1254;66548;-64
2024/03/11 06:55:10;;;;;;;15.60;8.70;;;;;;;3.71;67.14;101017.42;109102;1254;70694;-61
2024/03/11 06:57:38;;;;;;;13.80;8.30;;;;;;;3.70;67.06;101016.55;108887;1254;137748;-64
2024/03/11 07:00:17;;;;;;;18.40;9.20;;;;;;;3.67;67.14;101019.68;109086;1254;60216;-65
2024/03/11 07:02:46;;;;;;;15.30;9.30;;;;;;;3.67;67.26;101022.81;108899;1257;138563;-65
2024/03/11 07:05:13;;;;;;;13.80;9.10;;;;;;;3.70;67.43;101022.61;109186;1253;65473;-64
2024/03/11 07:07:43;;;;;;;15.80;8.90;;;;;;;3.71;67.33;101026.81;108907;1254;138569;-64
2024/03/11 07:10:10;;;;;;;15.80;9.10;;;;;;;3.75;67.61;101028.63;109144;1254;59185;-64
2024/03/11 07:12:40;;;;;;;14.60;8.80;;;;;;;3.81;67.61;101030.34;109082;1256;59321;-64
2024/03/11 07:15:08;;;;;;;13.30;8.30;;;;;;;3.86;67.82;101029.25;106872;1257;138290;-64
2024/03/11 07:17:35;;;;;;;14.20;8.70;;;;;;;3.90;67.69;101026.65;109053;1258;65372;-64
2024/03/11 07:20:07;;;;;;;15.50;9.50;;;;;;;3.94;67.76;101027.93;109015;1254;137828;-64
2024/03/11 07:22:35;;;;;;;16.00;9.60;;;;;;;3.96;67.83;101032.04;109058;1254;58997;-65
2024/03/11 07:25:15;;;;;;;16.90;10.60;;;;;;;3.96;67.93;101026.51;109168;1254;59444;-64
2024/03/11 07:27:42;;;;;;;17.70;10.20;;;;;;;3.98;67.78;101028.51;108888;1256;138412;-64
2024/03/11 07:30:11;;;;;;;18.10;10.20;;;;;;;3.99;67.79;101027.36;109074;1254;65274;-65
2024/03/11 07:32:38;;;;;;;15.80;10.70;;;;;;;4.03;67.98;101031.42;109006;1256;137846;-65
2024/03/11 07:35:05;;;;;;;16.10;9.20;;;;;;;4.04;67.74;101033.03;109063;1257;59300;-65
2024/03/11 07:37:36;;;;;;;15.30;9.80;;;;;;;4.04;67.73;101034.73;109043;1254;138985;-65
2024/03/11 07:40:11;;;;;;;13.00;9.60;;;;;;;4.00;67.67;101031.27;109087;1259;73630;-65
2024/03/11 07:42:38;;;;;;;17.90;10.70;;;;;;;4.04;67.82;101033.55;109056;1255;65826;-65
2024/03/11 07:45:10;;;;;;;14.50;9.00;;;;;;;4.06;67.75;101033.31;109047;1254;137822;-65
2024/03/11 07:47:39;;;;;;;16.20;10.10;;;;;;;4.08;67.78;101033.60;109139;1256;59003;-65
2024/03/11 07:50:08;;;;;;;19.00;9.60;;;;;;;4.08;67.89;101029.41;108881;1254;138480;-65
2024/03/11 07:52:37;;;;;;;14.10;8.80;;;;;;;4.11;67.84;101026.81;109063;1254;75786;-65
2024/03/11 07:55:06;;;;;;;11.90;8.50;;;;;;;4.15;67.96;101029.44;108995;1254;64601;-65
2024/03/11 07:57:35;;;;;;;14.70;8.80;;;;;;;4.15;67.88;101030.46;108935;1255;138728;-65
2024/03/11 08:00:08;;;;;;;16.20;10.50;;;;;;;4.16;67.97;101032.98;108958;1255;59179;-62
2024/03/11 08:02:34;;;;;;;18.80;10.40;;;;;;;4.15;67.98;101031.00;109076;1254;138438;-62
2024/03/11 08:05:02;;;;;;;14.80;9.30;;;;;;;4.16;68.02;101033.36;109033;1254;75939;-62
2024/03/11 08:07:32;;;;;;;21.40;11.00;;;;;;;4.20;68.04;101033.35;106568;1257;138552;-62
2024/03/11 08:10:02;;;;;;;16.60;10.10;;;;;;;4.21;68.19;101034.84;104756;1254;73648;-62
2024/03/11 08:12:29;;;;;;;18.40;10.50;;;;;;;4.20;68.18;101036.70;104934;1257;61364;-61
2024/03/11 08:14:55;;;;;;;17.50;10.60;;;;;;;4.20;68.14;101033.20;104855;1257;137714;-62
2024/03/11 08:17:22;;;;;;;18.70;10.50;;;;;;;4.20;68.31;101034.95;104696;1256;329638;-62
2024/03/11 08:19:49;;;;;;;15.10;8.60;;;;;;;4.20;68.29;101033.89;104912;1260;138490;-62
2024/03/11 08:22:16;;;;;;;16.40;9.50;;;;;;;4.20;68.39;101040.15;104954;1255;71020;-61
2024/03/11 08:24:43;;;;;;;16.00;9.10;;;;;;;4.20;68.34;101038.22;104920;1259;61196;-63
2024/03/11 08:27:10;;;;;;;16.60;8.60;;;;;;;4.19;68.40;101042.17;109100;1254;138700;-62
2024/03/11 08:29:36;;;;;;;15.90;9.10;;;;;;;4.17;68.39;101045.38;109212;1253;72682;-62
2024/03/11 08:32:05;;;;;;;17.00;9.30;;;;;;;4.17;68.62;101046.61;108994;1254;137831;-62
2024/03/11 08:34:32;;;;;;;18.10;9.30;;;;;;;4.22;68.70;101044.77;109008;1254;70927;-62
2024/03/11 08:36:59;;;;;;;15.60;9.40;;;;;;;4.25;68.90;101044.43;109190;1254;58927;-61
2024/03/11 08:39:26;;;;;;;14.40;8.70;;;;;;;4.29;68.85;101041.70;109004;1255;138618;-62
2024/03/11 08:41:53;;;;;;;16.50;8.90;;;;;;;4.29;68.84;101040.83;109117;1254;74238;-62
2024/03/11 08:44:20;;;;;;;16.40;8.80;;;;;;;4.32;68.98;101040.96;109088;1253;138782;-62
2024/03/11 08:46:47;;;;;;;16.70;8.50;;;;;;;4.35;69.10;101039.92;109043;1254;71467;-62
2024/03/11 08:49:13;;;;;;;13.10;8.90;;;;;;;4.40;69.12;101042.29;109060;1256;59425;-62
2024/03/11 08:51:40;;;;;;;17.00;7.80;;;;;;;4.45;69.19;101039.06;109017;1254;137603;-62
2024/03/11 08:54:07;;;;;;;15.30;9.50;;;;;;;4.54;69.35;101035.72;105618;1254;75623;-62
2024/03/11 08:56:34;;;;;;;15.20;9.60;;;;;;;4.59;69.29;101033.55;108971;1255;137454;-62
2024/03/11 08:59:01;;;;;;;14.80;9.30;;;;;;;4.58;69.08;101028.67;109186;1253;71933;-62
2024/03/11 09:01:29;;;;;;;12.90;8.50;;;;;;;4.57;69.29;101027.94;108915;1255;137926;-62
2024/03/11 09:03:56;;;;;;;17.00;9.20;;;;;;;4.60;69.30;101022.33;109330;1253;59070;-62
2024/03/11 09:06:23;;;;;;;14.70;8.40;;;;;;;4.61;69.34;101020.98;109142;1254;74615;-62
2024/03/11 09:08:52;;;;;;;11.30;7.90;;;;;;;4.58;69.30;101017.20;109044;1253;137824;-62
2024/03/11 09:11:19;;;;;;;14.90;9.80;;;;;;;4.58;69.30;101018.90;109152;1255;72045;-62
2024/03/11 09:13:46;;;;;;;13.60;9.10;;;;;;;4.56;69.44;101021.58;108926;1254;138356;-62
2024/03/11 09:16:12;;;;;;;18.40;10.00;;;;;;;4.58;69.54;101019.11;109167;1254;61031;-62
2024/03/11 09:18:39;;;;;;;14.60;9.90;;;;;;;4.57;69.59;101020.10;106367;1255;72672;-62
2024/03/11 09:21:06;;;;;;;17.90;10.20;;;;;;;4.58;69.75;101017.68;104979;1255;138683;-61
2024/03/11 09:23:32;;;;;;;15.10;10.00;;;;;;;4.59;69.83;101017.05;104977;1260;71976;-62
2024/03/11 09:26:01;;;;;;;16.70;9.60;;;;;;;4.58;69.80;101019.80;104987;1257;137796;-61
2024/03/11 09:28:28;;;;;;;17.30;10.90;;;;;;;4.55;69.70;101019.27;104933;1254;61252;-64
2024/03/11 09:30:56;;;;;;;18.50;9.60;;;;;;;4.51;69.95;101018.23;104996;1255;73859;-65
2024/03/11 09:33:24;;;;;;;17.90;10.30;;;;;;;4.56;70.28;101021.25;104897;1256;138293;-65
2024/03/11 09:35:50;;;;;;;17.90;9.90;;;;;;;4.55;70.22;101019.48;105086;1254;71978;-64
2024/03/11 09:38:19;;;;;;;16.70;9.90;;;;;;;4.54;70.18;101020.98;104948;1258;137755;-65
2024/03/11 09:40:47;;;;;;;16.80;9.80;;;;;;;4.54;70.34;101020.27;105112;1254;59958;-65
2024/03/11 09:43:15;;;;;;;13.20;9.20;;;;;;;4.55;70.45;101018.92;104962;1254;76177;-64
2024/03/11 09:45:43;;;;;;;13.70;8.80;;;;;;;4.56;70.53;101019.52;105265;1258;138094;-65
2024/03/11 09:48:10;;;;;;;20.20;9.40;;;;;;;4.53;70.37;101018.49;104917;1258;73931;-64
2024/03/11 09:50:37;;;;;;;16.30;9.90;;;;;;;4.49;70.28;101016.86;104876;1260;138144;-64
2024/03/11 09:53:12;;;;;;;14.90;10.00;;;;;;;4.49;70.63;101006.63;105027;1255;61421;-64
2024/03/11 09:55:43;;;;;;;21.60;9.80;;;;;;;4.54;70.75;101007.25;104820;1254;138928;-65
2024/03/11 09:58:12;;;;;;;15.70;10.00;;;;;;;4.57;70.78;101008.07;104921;1255;67155;-64
2024/03/11 10:00:55;;;;;;;15.60;9.40;;;;;;;4.58;70.92;101012.34;105082;1254;71325;-64
2024/03/11 10:03:24;;;;;;;16.80;10.10;;;;;;;4.57;70.70;101011.90;104936;1254;137521;-64
2024/03/11 10:05:58;;;;;;;17.10;9.90;;;;;;;4.52;70.70;101009.21;105021;1258;61253;-64
2024/03/11 10:08:25;;;;;;;16.30;10.40;;;;;;;4.47;70.83;101011.74;107960;1255;137557;-65
2024/03/11 10:11:14;;;;;;;14.60;9.90;;;;;;;4.45;70.96;101009.72;104872;1254;66777;-69
2024/03/11 10:13:41;;;;;;;20.10;10.60;;;;;;;4.46;71.14;101009.42;104838;1254;139844;-64
2024/03/11 10:16:21;;;;;;;21.60;10.90;;;;;;;4.48;71.40;101009.20;109137;1253;59216;-65
2024/03/11 10:19:12;;;;;;;13.60;10.20;;;;;;;4.50;71.47;101007.36;109147;1254;59589;-65
2024/03/11 10:21:42;;;;;;;18.80;10.50;;;;;;;4.52;71.48;101005.73;109136;1253;138250;-65
2024/03/11 10:24:09;;;;;;;17.50;10.80;;;;;;;4.55;71.53;101003.30;109134;1256;65259;-65
2024/03/11 10:26:42;;;;;;;20.10;10.70;;;;;;;4.58;71.49;101001.55;109017;1253;139425;-64
2024/03/11 10:29:11;;;;;;;25.10;12.30;;;;;;;4.64;71.68;100997.16;109146;1254;59293;-64
2024/03/11 10:31:40;;;;;;;22.40;13.40;;;;;;;4.69;71.84;100993.23;109035;1254;138653;-64
2024/03/11 10:34:21;;;;;;;17.30;10.50;;;;;;;4.73;71.82;100995.20;106697;1255;75477;-64
2024/03/11 10:36:55;;;;;;;21.20;12.00;;;;;;;4.75;71.72;100993.75;105041;1257;66683;-64
2024/03/11 10:41:50;;;;;;;24.90;12.90;;;;;;;4.79;71.67;100986.83;108966;1255;58898;-65
2024/03/11 10:44:29;;;;;;;20.80;12.00;;;;;;;4.82;71.89;100991.17;108947;1254;138475;-65
2024/03/11 10:47:02;;;;;;;19.70;11.90;;;;;;;4.82;71.83;100990.66;108060;1254;74672;-65
2024/03/11 10:49:28;;;;;;;21.30;13.00;;;;;;;4.83;71.79;100992.08;104722;1254;138491;-65
2024/03/11 10:51:58;;;;;;;31.20;17.10;;;;;;;4.80;71.81;100985.28;105014;1254;71951;-65
2024/03/11 10:54:28;;;;;;;27.30;16.10;;;;;;;4.78;71.97;100987.83;109160;1254;59835;-64
2024/03/11 10:56:55;;;;;;;26.20;16.10;;;;;;;4.78;72.00;100989.92;108836;1254;139093;-64
2024/03/11 10:59:22;;;;;;;29.40;17.50;;;;;;;4.79;71.98;100989.75;109216;1253;74288;-64
2024/03/11 11:01:57;;;;;;;38.00;20.00;;;;;;;4.77;72.00;100985.54;108876;1254;139169;-64
2024/03/11 11:04:30;;;;;;;36.90;18.70;;;;;;;4.76;72.09;100985.42;109100;1254;71759;-63
2024/03/11 11:07:00;;;;;;;30.80;16.60;;;;;;;4.74;72.10;100982.73;108972;1258;59805;-64
2024/03/11 11:09:29;;;;;;;17.00;11.10;;;;;;;4.74;72.19;100981.50;108903;1254;138958;-64
2024/03/11 11:11:56;;;;;;;18.10;10.90;;;;;;;4.67;72.08;100983.95;109014;1254;74790;-64
2024/03/11 11:14:27;;;;;;;21.60;11.30;;;;;;;4.64;72.21;100986.05;108941;1254;137888;-64
2024/03/11 11:16:55;;;;;;;18.40;11.00;;;;;;;4.58;72.19;100991.46;109074;1254;72135;-64
2024/03/11 11:19:23;;;;;;;19.10;10.60;;;;;;;4.53;72.28;100992.23;109003;1254;58928;-64